createdAt,value
2016-09-17T00:02:04.220Z,42.4
2016-09-17T00:07:03.921Z,42.3
2016-09-17T00:12:04.315Z,42.5
2016-09-17T00:17:03.782Z,42.5
2016-09-17T00:22:03.506Z,42.5
2016-09-17T00:27:03.968Z,42.6
2016-09-17T00:32:04.215Z,42.5
2016-09-17T00:37:03.570Z,42.4
2016-09-17T00:42:04.017Z,42.4
2016-09-17T00:47:04.347Z,42.6
2016-09-17T00:52:03.708Z,42.6
2016-09-17T00:57:04.114Z,42.6
2016-09-17T01:02:03.756Z,42.5
2016-09-17T01:07:04.123Z,42.5
2016-09-17T01:12:03.723Z,42.3
2016-09-17T01:17:04.095Z,42.3
2016-09-17T01:22:04.370Z,42.3
2016-09-17T01:27:03.692Z,42.4
2016-09-17T01:32:04.067Z,42.4
2016-09-17T01:37:03.499Z,42.5
2016-09-17T01:42:03.863Z,42.5
2016-09-17T01:47:03.506Z,42.6
2016-09-17T01:52:03.380Z,42.7
2016-09-17T01:57:03.984Z,42.6
2016-09-17T02:02:04.235Z,42.6
2016-09-17T02:07:03.664Z,42.7
2016-09-17T02:12:04.289Z,42.9
2016-09-17T02:17:04.129Z,42.9
2016-09-17T02:22:04.392Z,42.8
2016-09-17T02:27:03.946Z,42.9
2016-09-17T02:32:03.560Z,43.0
2016-09-17T02:37:04.335Z,43.0
2016-09-17T02:42:03.543Z,43.1
2016-09-17T02:47:03.998Z,43.0
2016-09-17T02:52:04.197Z,43.1
2016-09-17T02:57:03.527Z,43.2
2016-09-17T03:02:04.029Z,43.2
2016-09-17T03:07:04.273Z,43.3
2016-09-17T03:12:03.930Z,43.1
2016-09-17T03:17:04.264Z,43.2
2016-09-17T03:22:03.522Z,43.0
2016-09-17T03:27:03.811Z,43.0
2016-09-17T03:32:04.155Z,42.9
2016-09-17T03:37:04.095Z,42.9
2016-09-17T03:42:03.415Z,42.9
2016-09-17T03:47:03.883Z,43.1
2016-09-17T03:52:04.291Z,43.0
2016-09-17T03:57:03.604Z,43.0
2016-09-17T04:02:04.120Z,43.2
2016-09-17T04:07:03.581Z,43.1
2016-09-17T04:12:04.081Z,43.3
2016-09-17T04:17:04.435Z,43.4
2016-09-17T04:22:03.774Z,43.3
2016-09-17T04:27:04.302Z,43.4
2016-09-17T04:32:05.287Z,43.4
2016-09-17T04:37:03.718Z,43.4
2016-09-17T04:42:04.334Z,43.4
2016-09-17T04:47:35.108Z,43.4
2016-09-17T04:52:03.613Z,43.4
2016-09-17T04:57:04.089Z,43.4
2016-09-17T05:02:30.427Z,42.6
2016-09-17T05:07:03.834Z,43.2
2016-09-17T05:12:04.227Z,43.2
2016-09-17T05:17:33.106Z,43.1
2016-09-17T05:22:03.541Z,43.2
2016-09-17T05:27:03.940Z,43.1
2016-09-17T05:32:27.374Z,43.2
2016-09-17T05:37:03.627Z,43.1
2016-09-17T05:42:03.653Z,43.2
2016-09-17T05:47:35.354Z,43.1
2016-09-17T05:52:03.455Z,43.0
2016-09-17T05:57:04.164Z,43.2
2016-09-17T06:02:34.711Z,43.1
2016-09-17T06:07:04.002Z,42.8
2016-09-17T06:12:03.314Z,42.9
2016-09-17T06:17:37.122Z,42.8
2016-09-17T06:22:04.265Z,42.7
2016-09-17T06:27:04.096Z,42.6
2016-09-17T06:32:31.788Z,42.5
2016-09-17T06:37:04.355Z,42.5
2016-09-17T06:42:03.523Z,42.5
2016-09-17T06:47:31.925Z,42.2
2016-09-17T06:52:04.006Z,42.4
2016-09-17T06:57:03.596Z,42.2
2016-09-17T07:02:31.663Z,41.7
2016-09-17T07:07:03.787Z,42.1
2016-09-17T07:12:03.706Z,41.9
2016-09-17T07:17:31.918Z,41.8
2016-09-17T07:22:03.889Z,41.8
2016-09-17T07:27:03.755Z,41.7
2016-09-17T07:32:37.503Z,41.2
2016-09-17T07:37:04.292Z,41.1
2016-09-17T07:42:03.834Z,41.0
2016-09-17T07:47:40.013Z,41.0
2016-09-17T07:52:03.650Z,40.9
2016-09-17T07:57:04.074Z,40.9
2016-09-17T08:02:31.576Z,40.7
2016-09-17T08:12:04.196Z,41.3
2016-09-17T08:17:36.916Z,41.3
2016-09-17T08:22:03.404Z,41.3
2016-09-17T08:27:03.918Z,40.5
2016-09-17T08:32:32.006Z,40.5
2016-09-17T08:37:03.672Z,40.2
2016-09-17T08:42:03.343Z,40.2
2016-09-17T08:47:36.543Z,41.1
2016-09-17T08:52:03.621Z,41.0
2016-09-17T08:57:03.355Z,42.0
2016-09-17T09:02:31.600Z,43.0
2016-09-17T09:07:03.733Z,42.9
2016-09-17T09:12:03.662Z,42.9
2016-09-17T09:17:35.628Z,42.9
2016-09-17T09:22:03.966Z,42.7
2016-09-17T09:27:03.819Z,42.8
2016-09-17T09:32:32.232Z,42.8
2016-09-17T09:37:03.847Z,42.9
2016-09-17T09:42:03.420Z,42.6
2016-09-17T09:47:32.982Z,42.5
2016-09-17T09:52:04.246Z,42.2
2016-09-17T09:57:04.151Z,42.2
2016-09-17T10:02:31.951Z,41.4
2016-09-17T10:07:04.268Z,41.4
2016-09-17T10:12:04.006Z,41.7
2016-09-17T10:17:32.079Z,41.7
2016-09-17T10:22:03.985Z,42.2
2016-09-17T10:27:04.111Z,42.2
2016-09-17T10:32:40.624Z,42.3
2016-09-17T10:37:04.100Z,41.4
2016-09-17T10:42:04.315Z,41.5
2016-09-17T10:47:29.467Z,41.3
2016-09-17T10:52:03.757Z,41.3
2016-09-17T10:57:03.573Z,41.1
2016-09-17T11:02:31.697Z,41.4
2016-09-17T11:07:03.785Z,41.8
2016-09-17T11:12:03.642Z,41.6
2016-09-17T11:17:28.389Z,41.6
2016-09-17T11:22:04.367Z,41.3
2016-09-17T11:27:03.896Z,41.5
2016-09-17T11:32:29.900Z,41.1
2016-09-17T11:37:04.064Z,41.5
2016-09-17T11:42:04.858Z,41.6
2016-09-17T11:47:32.073Z,41.4
2016-09-17T11:52:03.717Z,41.5
2016-09-17T11:57:04.093Z,42.0
2016-09-17T12:02:31.781Z,41.4
2016-09-17T12:07:03.745Z,41.4
2016-09-17T12:12:04.000Z,41.5
2016-09-17T12:17:31.960Z,41.3
2016-09-17T12:22:03.876Z,41.1
2016-09-17T12:27:03.590Z,40.8
2016-09-17T12:32:31.551Z,40.7
2016-09-17T12:37:04.212Z,40.7
2016-09-17T12:42:03.721Z,40.6
2016-09-17T12:47:31.906Z,40.7
2016-09-17T12:52:03.744Z,41.3
2016-09-17T12:57:04.268Z,41.3
2016-09-17T13:02:31.675Z,42.0
2016-09-17T13:07:04.368Z,42.2
2016-09-17T13:12:04.086Z,42.0
2016-09-17T13:17:32.645Z,41.9
2016-09-17T13:22:03.749Z,41.7
2016-09-17T13:27:03.813Z,41.0
2016-09-17T13:32:37.028Z,40.5
2016-09-17T13:37:03.740Z,40.5
2016-09-17T13:42:04.093Z,40.3
2016-09-17T13:47:36.854Z,40.3
2016-09-17T13:52:03.519Z,40.1
2016-09-17T13:57:03.859Z,40.1
2016-09-17T20:02:03.459Z,43.5
2016-09-17T20:07:04.158Z,43.5
2016-09-17T20:12:03.584Z,43.4
2016-09-17T20:17:04.246Z,43.6
2016-09-17T20:22:03.833Z,43.6
2016-09-17T20:27:03.685Z,43.5
2016-09-17T20:32:04.092Z,43.4
2016-09-17T20:37:04.043Z,43.5
2016-09-17T20:42:03.489Z,43.5
2016-09-17T20:47:04.137Z,43.4
2016-09-17T20:52:03.489Z,43.4
2016-09-17T20:57:03.616Z,43.6
2016-09-17T21:02:04.174Z,43.3
2016-09-17T21:07:04.083Z,43.6
2016-09-17T21:12:03.678Z,43.5
2016-09-17T21:17:04.334Z,43.4
2016-09-17T21:22:04.213Z,43.6
2016-09-17T21:27:03.621Z,43.4
2016-09-17T21:32:04.174Z,43.5
2016-09-17T21:37:03.993Z,43.4
2016-09-17T21:42:04.070Z,43.6
2016-09-17T21:47:04.217Z,43.4
2016-09-17T21:52:03.795Z,43.4
2016-09-17T21:57:04.597Z,43.4
2016-09-17T22:02:04.405Z,43.5
2016-09-17T22:07:03.885Z,43.4
2016-09-17T22:12:03.694Z,43.4
2016-09-17T22:22:03.888Z,43.2
2016-09-17T22:27:03.876Z,43.5
2016-09-17T22:32:03.961Z,43.6
2016-09-17T22:37:03.911Z,43.7
2016-09-17T22:42:03.399Z,43.6
2016-09-17T22:47:03.928Z,43.6
2016-09-17T22:52:03.459Z,43.6
2016-09-17T22:57:03.882Z,43.6
2016-09-17T23:02:03.508Z,43.7
2016-09-17T23:07:03.668Z,43.7
2016-09-17T23:12:03.770Z,43.7
2016-09-17T23:17:04.418Z,43.5
2016-09-17T23:22:03.929Z,43.6
2016-09-17T23:27:03.540Z,43.6
2016-09-17T23:32:04.203Z,43.6
2016-09-17T23:37:03.930Z,43.6
2016-09-17T23:42:03.575Z,43.7
2016-09-17T23:47:04.181Z,43.7
2016-09-17T23:52:03.854Z,43.7
2016-09-17T23:57:03.450Z,43.8
